createdAt,value
2016-05-17T00:00:25.781Z,10.68
2016-05-17T00:01:25.597Z,10.74
2016-05-17T00:02:25.725Z,10.78
2016-05-17T00:03:25.727Z,10.64
2016-05-17T00:04:25.526Z,10.75
2016-05-17T00:05:25.653Z,10.6
2016-05-17T00:06:25.485Z,10.68
2016-05-17T00:07:25.456Z,10.72
2016-05-17T00:08:25.427Z,10.61
2016-05-17T00:09:25.555Z,10.57
2016-05-17T00:10:25.542Z,10.69
2016-05-17T00:11:25.514Z,10.63
2016-05-17T00:12:25.486Z,10.61
2016-05-17T00:13:25.472Z,10.68
2016-05-17T00:14:25.444Z,10.68
2016-05-17T00:15:25.415Z,10.71
2016-05-17T00:16:25.387Z,10.67
2016-05-17T00:17:25.374Z,10.68
2016-05-17T00:18:25.188Z,10.69
2016-05-17T00:19:25.317Z,10.59
2016-05-17T00:20:25.288Z,10.61
2016-05-17T00:21:25.651Z,10.59
2016-05-17T00:22:25.247Z,10.6
2016-05-17T00:23:25.234Z,10.61
2016-05-17T00:24:25.205Z,10.6
2016-05-17T00:25:25.176Z,10.57
2016-05-17T00:26:25.148Z,10.53
2016-05-17T00:27:25.120Z,10.59
2016-05-17T00:28:25.107Z,10.49
2016-05-17T00:29:24.922Z,10.56
2016-05-17T00:30:25.050Z,10.54
2016-05-17T00:31:25.036Z,10.56
2016-05-17T00:32:25.009Z,10.53
2016-05-17T00:33:24.979Z,10.57
2016-05-17T00:34:24.950Z,10.53
2016-05-17T00:35:24.938Z,10.63
2016-05-17T00:36:24.909Z,10.56
2016-05-17T00:37:24.881Z,10.56
2016-05-17T00:38:24.853Z,10.56
2016-05-17T00:39:24.839Z,10.56
2016-05-17T00:40:24.811Z,10.56
2016-05-17T00:41:24.782Z,10.59
2016-05-17T00:42:24.753Z,10.54
2016-05-17T00:43:24.741Z,10.44
2016-05-17T00:44:24.713Z,10.51
2016-05-17T00:45:24.528Z,10.46
2016-05-17T00:46:24.671Z,10.44
2016-05-17T00:47:24.642Z,10.53
2016-05-17T00:48:24.614Z,10.42
2016-05-17T00:49:24.585Z,10.42
2016-05-17T00:50:24.571Z,10.49
2016-05-17T00:51:25.137Z,10.38
2016-05-17T00:52:24.515Z,10.38
2016-05-17T00:53:24.487Z,10.42
2016-05-17T00:54:24.473Z,10.41
2016-05-17T00:55:24.445Z,10.4
2016-05-17T00:56:24.416Z,10.49
2016-05-17T00:57:24.403Z,10.44
2016-05-17T00:58:24.375Z,10.44
2016-05-17T00:59:24.346Z,10.46
2016-05-17T01:00:24.318Z,10.54
2016-05-17T01:01:24.305Z,10.56
2016-05-17T01:02:24.276Z,10.49
2016-05-17T01:03:24.248Z,10.54
2016-05-17T01:04:24.062Z,10.49
2016-05-17T01:05:24.206Z,10.54
2016-05-17T01:06:24.021Z,10.57
2016-05-17T01:07:24.150Z,10.54
2016-05-17T01:08:24.136Z,10.53
2016-05-17T01:09:24.108Z,10.59
2016-05-17T01:10:24.079Z,10.54
2016-05-17T01:11:24.050Z,10.49
2016-05-17T01:12:24.038Z,10.57
2016-05-17T01:13:24.009Z,10.49
2016-05-17T01:14:23.980Z,10.56
2016-05-17T01:15:23.952Z,10.57
2016-05-17T01:16:23.939Z,10.56
2016-05-17T01:17:23.927Z,10.57
2016-05-17T01:18:23.741Z,10.44
2016-05-17T01:19:23.853Z,10.53
2016-05-17T01:20:23.841Z,10.57
2016-05-17T01:21:24.077Z,10.53
2016-05-17T01:22:23.783Z,10.57
2016-05-17T01:23:23.598Z,10.57
2016-05-17T01:24:23.741Z,10.56
2016-05-17T01:25:23.713Z,10.6
2016-05-17T01:26:23.685Z,10.56
2016-05-17T01:27:23.499Z,10.51
2016-05-17T01:28:23.643Z,10.61
2016-05-17T01:29:23.614Z,10.61
2016-05-17T01:30:23.586Z,10.57
2016-05-17T01:31:23.573Z,10.59
2016-05-17T01:32:23.544Z,10.6
2016-05-17T01:33:23.516Z,10.63
2016-05-17T01:34:23.487Z,10.56
2016-05-17T01:35:23.475Z,10.53
2016-05-17T01:36:24.087Z,10.64
2016-05-17T01:37:23.417Z,10.63
2016-05-17T01:38:23.404Z,10.6
2016-05-17T01:39:23.219Z,10.63
2016-05-17T01:40:23.347Z,10.63
2016-05-17T01:41:23.319Z,10.63
2016-05-17T01:42:23.306Z,10.6
2016-05-17T01:43:23.277Z,10.63
2016-05-17T01:44:23.249Z,10.67
2016-05-17T01:45:23.219Z,10.59
2016-05-17T01:46:23.207Z,10.63
2016-05-17T01:47:23.194Z,10.71
2016-05-17T01:48:23.149Z,10.71
2016-05-17T01:49:23.122Z,10.68
2016-05-17T01:50:23.108Z,10.71
2016-05-17T01:51:23.080Z,10.74
2016-05-17T01:52:23.052Z,10.74
2016-05-17T01:53:23.038Z,10.78
2016-05-17T01:54:23.010Z,10.76
2016-05-17T01:55:22.981Z,10.75
2016-05-17T01:56:22.952Z,10.75
2016-05-17T01:57:22.940Z,10.74
2016-05-17T01:58:22.755Z,10.78
2016-05-17T01:59:22.898Z,10.75
2016-05-17T02:00:22.870Z,10.75
2016-05-17T02:01:22.841Z,10.76
2016-05-17T02:02:22.656Z,10.69
2016-05-17T02:03:22.643Z,10.76
2016-05-17T02:04:22.770Z,10.72
2016-05-17T02:05:22.743Z,10.76
2016-05-17T02:06:22.714Z,10.78
2016-05-17T02:07:22.701Z,10.78
2016-05-17T02:08:22.673Z,10.78
2016-05-17T02:09:22.644Z,10.75
2016-05-17T02:10:22.615Z,10.74
2016-05-17T02:11:22.603Z,10.69
2016-05-17T02:12:22.574Z,10.72
2016-05-17T02:13:22.545Z,10.74
2016-05-17T02:14:22.517Z,10.81
2016-05-17T02:15:22.503Z,10.76
2016-05-17T02:16:22.475Z,10.72
2016-05-17T02:17:22.447Z,10.75
2016-05-17T02:18:22.433Z,10.74
2016-05-17T02:19:22.406Z,10.74
2016-05-17T02:20:22.376Z,10.72
2016-05-17T02:21:22.363Z,10.74
2016-05-17T02:22:22.351Z,10.74
2016-05-17T02:23:22.322Z,10.71
2016-05-17T02:24:22.497Z,10.78
2016-05-17T02:25:22.265Z,10.68
2016-05-17T02:26:22.237Z,10.75
2016-05-17T02:27:22.052Z,10.69
2016-05-17T02:28:22.179Z,10.71
2016-05-17T02:29:22.166Z,10.72
2016-05-17T02:30:22.138Z,10.74
2016-05-17T02:31:22.110Z,10.63
2016-05-17T02:32:21.940Z,10.6
2016-05-17T02:33:21.912Z,10.68
2016-05-17T02:34:21.883Z,10.61
2016-05-17T02:35:21.870Z,10.63
2016-05-17T02:36:21.997Z,10.64
2016-05-17T02:37:22.360Z,10.63
2016-05-17T02:38:21.956Z,10.67
2016-05-17T02:39:21.928Z,10.61
2016-05-17T02:40:22.025Z,10.61
2016-05-17T02:41:21.870Z,10.63
2016-05-17T02:42:21.842Z,10.63
2016-05-17T02:43:21.828Z,10.67
2016-05-17T02:44:21.800Z,10.63
2016-05-17T02:45:21.772Z,10.6
2016-05-17T02:46:21.744Z,10.61
2016-05-17T02:47:21.731Z,10.6
2016-05-17T02:48:21.702Z,10.69
2016-05-17T02:49:21.673Z,10.64
2016-05-17T02:50:21.660Z,10.68
2016-05-17T02:51:21.633Z,10.59
2016-05-17T02:52:21.619Z,10.68
2016-05-17T02:53:21.575Z,10.59
2016-05-17T02:54:21.562Z,10.67
2016-05-17T02:55:21.377Z,10.64
2016-05-17T02:56:21.505Z,10.64
2016-05-17T02:57:21.476Z,10.61
2016-05-17T02:58:21.463Z,10.67
2016-05-17T02:59:21.435Z,10.67
2016-05-17T03:00:21.407Z,10.6
2016-05-17T03:01:21.393Z,10.67
2016-05-17T03:02:21.209Z,10.6
2016-05-17T03:03:21.336Z,10.64
2016-05-17T03:04:21.307Z,10.67
2016-05-17T03:05:21.295Z,10.69
2016-05-17T03:06:21.265Z,10.68
2016-05-17T03:07:21.237Z,10.6
2016-05-17T03:08:21.209Z,10.64
2016-05-17T03:09:21.195Z,10.59
2016-05-17T03:10:21.167Z,10.63
2016-05-17T03:11:21.139Z,10.67
2016-05-17T03:12:21.126Z,10.63
2016-05-17T03:13:21.097Z,10.64
2016-05-17T03:14:21.069Z,10.69
2016-05-17T03:15:21.039Z,10.67
2016-05-17T03:16:21.028Z,10.63
2016-05-17T03:17:21.014Z,10.61
2016-05-17T03:18:20.970Z,10.63
2016-05-17T03:19:20.942Z,10.61
2016-05-17T03:20:20.772Z,10.57
2016-05-17T03:21:20.743Z,10.56
2016-05-17T03:22:20.730Z,10.59
2016-05-17T03:23:20.858Z,10.53
2016-05-17T03:24:20.846Z,10.56
2016-05-17T03:25:20.801Z,10.56
2016-05-17T03:26:20.819Z,10.53
2016-05-17T03:27:20.760Z,10.54
2016-05-17T03:28:20.763Z,10.6
2016-05-17T03:29:20.734Z,10.56
2016-05-17T03:30:20.690Z,10.54
2016-05-17T03:31:20.676Z,10.51
2016-05-17T03:32:20.821Z,10.54
2016-05-17T03:33:20.621Z,10.54
2016-05-17T03:34:20.591Z,10.51
2016-05-17T03:35:20.563Z,10.56
2016-05-17T03:36:20.565Z,10.53
2016-05-17T03:37:20.990Z,10.56
2016-05-17T03:38:20.492Z,10.54
2016-05-17T03:39:20.465Z,10.48
2016-05-17T03:40:20.451Z,10.46
2016-05-17T03:41:20.423Z,10.53
2016-05-17T03:42:20.394Z,10.46
2016-05-17T03:43:20.381Z,10.48
2016-05-17T03:44:20.337Z,10.46
2016-05-17T03:45:20.324Z,10.48
2016-05-17T03:46:20.295Z,10.57
2016-05-17T03:47:20.282Z,10.54
2016-05-17T03:48:20.239Z,10.57
2016-05-17T03:49:20.225Z,10.56
2016-05-17T03:50:20.196Z,10.54
2016-05-17T03:51:20.278Z,10.54
2016-05-17T03:52:20.843Z,10.57
2016-05-17T03:53:20.127Z,10.54
2016-05-17T03:54:20.098Z,10.6
2016-05-17T03:55:20.069Z,10.57
2016-05-17T03:56:20.057Z,10.56
2016-05-17T03:57:20.044Z,10.54
2016-05-17T03:58:19.999Z,10.51
2016-05-17T03:59:19.971Z,10.6
2016-05-17T04:00:19.958Z,10.57
2016-05-17T04:01:19.929Z,10.54
2016-05-17T04:02:19.901Z,10.54
2016-05-17T04:03:19.887Z,10.56
2016-05-17T04:04:19.860Z,10.56
2016-05-17T04:05:19.832Z,10.57
2016-05-17T04:06:19.818Z,10.63
2016-05-17T04:07:19.634Z,10.67
2016-05-17T04:08:19.761Z,10.64
2016-05-17T04:09:19.748Z,10.68
2016-05-17T04:10:19.719Z,10.64
2016-05-17T04:11:19.690Z,10.64
2016-05-17T04:12:19.662Z,10.57
2016-05-17T04:13:19.493Z,10.69
2016-05-17T04:14:19.620Z,10.69
2016-05-17T04:15:19.592Z,10.69
2016-05-17T04:16:19.564Z,10.69
2016-05-17T04:17:19.535Z,10.71
2016-05-17T04:18:19.522Z,10.74
2016-05-17T04:19:19.493Z,10.72
2016-05-17T04:20:19.465Z,10.72
2016-05-17T04:21:19.453Z,10.72
2016-05-17T04:22:19.424Z,10.75
2016-05-17T04:23:19.239Z,10.74
2016-05-17T04:24:19.382Z,10.74
2016-05-17T04:25:19.353Z,10.79
2016-05-17T04:26:19.324Z,10.78
2016-05-17T04:27:19.296Z,10.75
2016-05-17T04:28:19.283Z,10.72
2016-05-17T04:29:19.099Z,10.84
2016-05-17T04:30:19.226Z,10.9
2016-05-17T04:31:19.198Z,10.78
2016-05-17T04:32:19.185Z,10.79
2016-05-17T04:33:19.156Z,10.79
2016-05-17T04:34:19.127Z,10.86
2016-05-17T04:35:19.114Z,10.87
2016-05-17T04:36:19.087Z,10.89
2016-05-17T04:37:19.121Z,10.9
2016-05-17T04:38:19.045Z,10.84
2016-05-17T04:39:19.016Z,10.96
2016-05-17T04:40:18.987Z,10.99
2016-05-17T04:41:18.975Z,11.02
2016-05-17T04:42:18.789Z,10.96
2016-05-17T04:43:18.917Z,10.99
2016-05-17T04:44:18.889Z,10.97
2016-05-17T04:45:18.876Z,10.93
2016-05-17T04:46:18.848Z,10.99
2016-05-17T04:47:18.850Z,10.99
2016-05-17T04:48:18.806Z,10.97
2016-05-17T04:49:18.777Z,10.94
2016-05-17T04:50:18.749Z,11
2016-05-17T04:51:18.719Z,10.97
2016-05-17T04:52:18.692Z,11.04
2016-05-17T04:53:18.679Z,11.08
2016-05-17T04:54:18.650Z,11
2016-05-17T04:55:18.638Z,10.99
2016-05-17T04:56:18.608Z,11.05
2016-05-17T04:57:18.580Z,10.96
2016-05-17T04:58:18.567Z,10.97
2016-05-17T04:59:18.554Z,10.99
2016-05-17T05:00:18.510Z,10.97
2016-05-17T05:01:18.482Z,10.93
2016-05-17T05:02:18.469Z,11
2016-05-17T05:03:18.440Z,10.96
2016-05-17T05:04:18.427Z,10.96
2016-05-17T05:05:18.617Z,10.97
2016-05-17T05:06:18.370Z,11.08
2016-05-17T05:07:18.340Z,11.08
2016-05-17T05:08:18.328Z,11.05
2016-05-17T05:09:18.322Z,11.07
2016-05-17T05:10:18.335Z,11.12
2016-05-17T05:11:18.366Z,11.04
2016-05-17T05:12:18.379Z,11.07
2016-05-17T05:13:18.394Z,11.11
2016-05-17T05:14:18.395Z,11.08
2016-05-17T05:15:18.397Z,11.08
2016-05-17T05:16:18.385Z,11.05
2016-05-17T05:17:18.386Z,11.07
2016-05-17T05:18:18.374Z,11.08
2016-05-17T05:19:18.356Z,11.08
2016-05-17T05:20:18.348Z,11.08
2016-05-17T05:21:18.325Z,11.14
2016-05-17T05:22:18.536Z,11.12
2016-05-17T05:23:18.293Z,11.15
2016-05-17T05:24:18.269Z,11.19
2016-05-17T05:25:18.243Z,11.29
2016-05-17T05:26:18.216Z,11.36
2016-05-17T05:27:18.205Z,11.32
2016-05-17T05:28:18.179Z,11.37
2016-05-17T05:29:18.011Z,11.33
2016-05-17T05:30:18.139Z,11.37
2016-05-17T05:31:18.110Z,11.36
2016-05-17T05:32:18.083Z,11.3
2016-05-17T05:33:18.072Z,11.33
2016-05-17T05:34:18.042Z,11.41
2016-05-17T05:35:18.031Z,11.32
2016-05-17T05:36:18.002Z,11.36
2016-05-17T05:37:17.974Z,11.4
2016-05-17T05:38:17.962Z,11.29
2016-05-17T05:39:17.933Z,11.41
2016-05-17T05:40:17.763Z,11.44
2016-05-17T05:41:17.891Z,11.51
2016-05-17T05:42:17.863Z,11.47
2016-05-17T05:43:17.851Z,11.48
2016-05-17T05:44:17.821Z,11.52
2016-05-17T05:45:17.793Z,11.5
2016-05-17T05:46:17.765Z,11.5
2016-05-17T05:47:17.751Z,11.43
2016-05-17T05:48:17.724Z,11.45
2016-05-17T05:49:17.694Z,11.54
2016-05-17T05:50:17.681Z,11.59
2016-05-17T05:51:17.653Z,11.51
2016-05-17T05:52:17.484Z,11.6
2016-05-17T05:53:17.612Z,11.66
2016-05-17T05:54:17.584Z,11.54
2016-05-17T05:55:17.570Z,11.72
2016-05-17T05:56:17.542Z,11.65
2016-05-17T05:57:17.529Z,11.66
2016-05-17T05:58:17.500Z,11.69
2016-05-17T05:59:17.315Z,11.77
2016-05-17T06:00:17.459Z,11.77
2016-05-17T06:01:17.430Z,11.75
2016-05-17T06:02:17.402Z,11.8
2016-05-17T06:03:17.389Z,11.86
2016-05-17T06:04:17.358Z,11.7
2016-05-17T06:05:17.344Z,11.86
2016-05-17T06:06:17.316Z,11.84
2016-05-17T06:07:17.287Z,11.83
2016-05-17T06:08:17.274Z,11.94
2016-05-17T06:09:17.089Z,11.91
2016-05-17T06:10:17.233Z,11.88
2016-05-17T06:11:17.204Z,11.99
2016-05-17T06:12:17.019Z,12
2016-05-17T06:13:17.146Z,12.02
2016-05-17T06:14:17.134Z,11.97
2016-05-17T06:15:17.105Z,12.04
2016-05-17T06:16:17.093Z,12.06
2016-05-17T06:17:17.064Z,12.1
2016-05-17T06:18:17.035Z,12.09
2016-05-17T06:19:17.038Z,12.13
2016-05-17T06:20:16.993Z,12.07
2016-05-17T06:21:16.982Z,12.17
2016-05-17T06:22:16.953Z,12.2
2016-05-17T06:23:16.923Z,12.17
2016-05-17T06:24:16.926Z,12.15
2016-05-17T06:25:16.882Z,12.27
2016-05-17T06:26:16.870Z,12.17
2016-05-17T06:27:16.842Z,12.17
2016-05-17T06:28:16.813Z,12.2
2016-05-17T06:29:16.799Z,12.25
2016-05-17T06:30:16.771Z,12.21
2016-05-17T06:31:16.758Z,12.22
2016-05-17T06:32:16.730Z,12.29
2016-05-17T06:33:16.701Z,12.28
2016-05-17T06:34:16.689Z,12.31
2016-05-17T06:35:16.675Z,12.37
2016-05-17T06:36:16.647Z,12.35
2016-05-17T06:37:16.884Z,12.54
2016-05-17T06:38:16.605Z,12.49
2016-05-17T06:39:16.577Z,12.37
2016-05-17T06:40:16.547Z,12.5
2016-05-17T06:41:16.379Z,12.5
2016-05-17T06:42:16.522Z,12.53
2016-05-17T06:43:16.494Z,12.53
2016-05-17T06:44:16.465Z,12.49
2016-05-17T06:45:16.452Z,12.55
2016-05-17T06:46:16.424Z,12.55
2016-05-17T06:47:16.395Z,12.64
2016-05-17T06:48:16.382Z,12.64
2016-05-17T06:49:16.368Z,12.73
2016-05-17T06:50:16.512Z,12.7
2016-05-17T06:51:16.312Z,12.7
2016-05-17T06:52:16.237Z,12.72
2016-05-17T06:53:16.129Z,12.7
2016-05-17T06:54:16.257Z,12.8
2016-05-17T06:55:16.229Z,12.76
2016-05-17T06:56:16.215Z,12.83
2016-05-17T06:57:16.187Z,12.86
2016-05-17T06:58:16.174Z,12.83
2016-05-17T06:59:16.146Z,12.9
2016-05-17T07:00:16.133Z,12.97
2016-05-17T07:01:16.104Z,12.97
2016-05-17T07:02:16.091Z,12.95
2016-05-17T07:03:16.063Z,13.04
2016-05-17T07:04:16.050Z,13.03
2016-05-17T07:05:16.021Z,13.19
2016-05-17T07:06:16.008Z,13.19
2016-05-17T07:07:16.355Z,13.18
2016-05-17T07:08:15.967Z,13.19
2016-05-17T07:09:15.938Z,13.18
2016-05-17T07:10:15.925Z,13.31
2016-05-17T07:11:15.912Z,13.38
2016-05-17T07:12:15.727Z,13.41
2016-05-17T07:13:15.871Z,13.42
2016-05-17T07:14:15.843Z,13.47
2016-05-17T07:15:15.657Z,13.47
2016-05-17T07:16:15.801Z,13.52
2016-05-17T07:17:15.788Z,13.49
2016-05-17T07:18:15.760Z,13.52
2016-05-17T07:19:15.746Z,13.54
2016-05-17T07:20:15.718Z,13.57
2016-05-17T07:21:15.548Z,13.71
2016-05-17T07:22:15.754Z,13.74
2016-05-17T07:23:15.663Z,13.79
2016-05-17T07:24:15.681Z,13.81
2016-05-17T07:25:15.466Z,13.83
2016-05-17T07:26:15.593Z,13.87
2016-05-17T07:27:15.581Z,13.86
2016-05-17T07:28:15.568Z,13.95
2016-05-17T07:29:15.539Z,14
2016-05-17T07:30:15.526Z,14
2016-05-17T07:31:15.513Z,14.05
2016-05-17T07:32:15.484Z,14.08
2016-05-17T07:33:15.456Z,14.11
2016-05-17T07:34:15.443Z,14.14
2016-05-17T07:35:15.430Z,14.15
2016-05-17T07:36:15.402Z,14.18
2016-05-17T07:37:15.389Z,14.35
2016-05-17T07:38:15.375Z,14.36
2016-05-17T07:39:15.191Z,14.32
2016-05-17T07:40:15.334Z,14.47
2016-05-17T07:41:15.305Z,14.53
2016-05-17T07:42:15.293Z,14.59
2016-05-17T07:43:15.280Z,14.53
2016-05-17T07:44:15.251Z,14.58
2016-05-17T07:45:15.238Z,14.7
2016-05-17T07:46:15.209Z,14.72
2016-05-17T07:47:15.197Z,14.72
2016-05-17T07:48:15.185Z,14.69
2016-05-17T07:49:15.171Z,14.7
2016-05-17T07:50:15.143Z,14.73
2016-05-17T07:51:15.129Z,14.82
2016-05-17T07:52:15.116Z,14.92
2016-05-17T07:53:15.119Z,14.94
2016-05-17T07:54:15.075Z,14.91
2016-05-17T07:55:15.046Z,15.06
2016-05-17T07:56:15.033Z,15.09
2016-05-17T07:57:15.005Z,15.1
2016-05-17T07:58:14.992Z,15.19
2016-05-17T07:59:14.979Z,15.19
2016-05-17T08:00:14.967Z,15.1
2016-05-17T08:01:14.969Z,15.31
2016-05-17T08:02:14.972Z,15.22
2016-05-17T08:03:14.928Z,15.31
2016-05-17T08:04:14.945Z,15.31
2016-05-17T08:05:14.886Z,15.42
2016-05-17T08:06:14.888Z,15.31
2016-05-17T08:07:14.845Z,15.43
2016-05-17T08:08:14.816Z,15.47
2016-05-17T08:09:14.802Z,15.46
2016-05-17T08:10:14.790Z,15.61
2016-05-17T08:11:14.761Z,15.55
2016-05-17T08:12:14.592Z,15.52
2016-05-17T08:13:14.736Z,15.44
2016-05-17T08:14:14.722Z,15.36
2016-05-17T08:15:14.694Z,15.28
2016-05-17T08:16:14.680Z,15.33
2016-05-17T08:17:14.558Z,15.33
2016-05-17T08:18:14.655Z,15.29
2016-05-17T08:19:14.626Z,15.29
2016-05-17T08:20:14.613Z,15.28
2016-05-17T08:21:14.585Z,15.33
2016-05-17T08:22:14.415Z,15.33
2016-05-17T08:23:14.560Z,15.39
2016-05-17T08:24:14.531Z,15.36
2016-05-17T08:25:14.518Z,15.39
2016-05-17T08:26:14.504Z,15.46
2016-05-17T08:27:14.476Z,15.57
2016-05-17T08:28:14.463Z,15.52
2016-05-17T08:29:14.465Z,15.55
2016-05-17T08:30:14.437Z,15.58
2016-05-17T08:31:14.284Z,15.55
2016-05-17T08:32:14.412Z,15.59
2016-05-17T08:33:14.383Z,15.68
2016-05-17T08:34:14.214Z,15.84
2016-05-17T08:35:14.342Z,15.84
2016-05-17T08:36:14.329Z,15.83
2016-05-17T08:37:15.159Z,15.83
2016-05-17T08:38:14.303Z,15.82
2016-05-17T08:39:14.290Z,15.84
2016-05-17T08:40:14.261Z,15.86
2016-05-17T08:41:14.233Z,15.95
2016-05-17T08:42:14.236Z,16.01
2016-05-17T08:43:14.066Z,16.1
2016-05-17T08:44:14.194Z,15.98
2016-05-17T08:45:14.180Z,15.92
2016-05-17T08:46:14.168Z,15.98
2016-05-17T08:47:14.155Z,15.97
2016-05-17T08:48:14.127Z,15.98
2016-05-17T08:49:13.957Z,15.97
2016-05-17T08:50:13.944Z,15.98
2016-05-17T08:51:14.071Z,16.12
2016-05-17T08:52:14.074Z,16.08
2016-05-17T08:53:13.890Z,16.05
2016-05-17T08:54:13.893Z,16.05
2016-05-17T08:55:14.068Z,16.2
2016-05-17T08:56:13.992Z,16.38
2016-05-17T08:57:13.979Z,16.46
2016-05-17T08:58:13.810Z,16.49
2016-05-17T08:59:13.953Z,16.49
2016-05-17T09:00:13.940Z,16.54
2016-05-17T09:01:13.912Z,16.64
2016-05-17T09:02:13.914Z,16.71
2016-05-17T09:03:13.886Z,16.74
2016-05-17T09:04:13.872Z,16.84
2016-05-17T09:05:13.844Z,16.83
2016-05-17T09:06:13.831Z,16.87
2016-05-17T09:07:14.099Z,16.93
2016-05-17T09:08:13.805Z,16.84
2016-05-17T09:09:13.792Z,16.97
2016-05-17T09:10:13.780Z,16.99
2016-05-17T09:11:13.767Z,16.99
2016-05-17T09:12:13.753Z,17.02
2016-05-17T09:13:13.772Z,17.02
2016-05-17T09:14:13.727Z,17.29
2016-05-17T09:15:13.544Z,17.44
2016-05-17T09:16:13.702Z,17.48
2016-05-17T09:17:13.689Z,17.78
2016-05-17T09:18:13.660Z,17.79
2016-05-17T09:19:13.647Z,17.97
2016-05-17T09:20:13.649Z,17.95
2016-05-17T09:21:13.621Z,18.05
2016-05-17T09:22:13.624Z,18.08
2016-05-17T09:23:13.799Z,18.05
2016-05-17T09:24:13.583Z,17.95
2016-05-17T09:25:13.570Z,18.05
2016-05-17T09:26:13.573Z,17.95
2016-05-17T09:27:13.544Z,18.04
2016-05-17T09:28:13.374Z,18
2016-05-17T09:29:13.518Z,18.08
2016-05-17T09:30:13.505Z,18.16
2016-05-17T09:31:13.336Z,18.22
2016-05-17T09:32:13.323Z,18.35
2016-05-17T09:33:13.467Z,18.49
2016-05-17T09:34:13.454Z,18.49
2016-05-17T09:35:13.440Z,18.49
2016-05-17T09:36:13.428Z,18.5
2016-05-17T09:37:13.728Z,18.6
2016-05-17T09:38:13.401Z,18.56
2016-05-17T09:39:13.389Z,18.71
2016-05-17T09:40:13.392Z,18.83
2016-05-17T09:41:13.363Z,18.88
2016-05-17T09:42:13.350Z,18.99
2016-05-17T09:43:13.353Z,18.98
2016-05-17T09:44:13.339Z,19.02
2016-05-17T09:45:13.327Z,18.95
2016-05-17T09:46:13.313Z,18.9
2016-05-17T09:47:13.300Z,18.89
2016-05-17T09:48:13.303Z,18.98
2016-05-17T09:49:13.274Z,18.92
2016-05-17T09:50:13.262Z,19.02
2016-05-17T09:51:13.249Z,19
2016-05-17T09:52:13.236Z,19.04
2016-05-17T09:53:13.224Z,19.04
2016-05-17T09:54:13.227Z,19.12
2016-05-17T09:55:13.196Z,19.04
2016-05-17T09:56:13.200Z,19.11
2016-05-17T09:57:13.172Z,19.08
2016-05-17T09:58:13.159Z,19.04
2016-05-17T09:59:13.146Z,18.93
2016-05-17T10:00:13.132Z,19.07
2016-05-17T10:01:12.979Z,19.21
2016-05-17T10:02:13.013Z,19.31
2016-05-17T10:03:13.359Z,19.45
2016-05-17T10:04:13.096Z,19.54
2016-05-17T10:05:13.084Z,19.52
2016-05-17T10:06:13.086Z,19.52
2016-05-17T10:07:13.198Z,19.4
2016-05-17T10:08:13.076Z,19.48
2016-05-17T10:09:13.314Z,19.41
2016-05-17T10:10:13.019Z,19.48
2016-05-17T10:11:13.006Z,19.39
2016-05-17T10:12:13.008Z,19.47
2016-05-17T10:13:12.996Z,19.44
2016-05-17T10:14:12.967Z,19.47
2016-05-17T10:15:12.970Z,19.66
2016-05-17T10:16:13.036Z,19.71
2016-05-17T10:17:12.944Z,19.69
2016-05-17T10:18:12.947Z,19.64
2016-05-17T10:19:12.997Z,19.64
2016-05-17T10:20:12.905Z,19.47
2016-05-17T10:21:12.752Z,19.52
2016-05-17T10:22:12.739Z,19.52
2016-05-17T10:23:12.882Z,19.58
2016-05-17T10:24:12.869Z,19.52
2016-05-17T10:25:12.856Z,19.67
2016-05-17T10:26:12.844Z,19.66
2016-05-17T10:27:12.846Z,19.69
2016-05-17T10:28:12.817Z,19.63
2016-05-17T10:29:12.805Z,19.67
2016-05-17T10:30:12.791Z,19.63
2016-05-17T10:31:12.793Z,19.63
2016-05-17T10:32:12.782Z,19.62
2016-05-17T10:33:12.768Z,19.63
2016-05-17T10:34:12.756Z,19.62
2016-05-17T10:35:12.743Z,19.58
2016-05-17T10:36:12.729Z,19.7
2016-05-17T10:37:12.856Z,19.7
2016-05-17T10:38:12.704Z,19.66
2016-05-17T10:39:12.690Z,19.69
2016-05-17T10:40:12.693Z,19.62
2016-05-17T10:41:12.665Z,19.48
2016-05-17T10:42:12.668Z,19.49
2016-05-17T10:43:12.639Z,19.55
2016-05-17T10:44:12.626Z,19.44
2016-05-17T10:45:12.473Z,19.45
2016-05-17T10:46:12.616Z,19.36
2016-05-17T10:47:12.603Z,19.16
2016-05-17T10:48:12.575Z,19.11
2016-05-17T10:49:12.561Z,19.11
2016-05-17T10:50:12.564Z,19.08
2016-05-17T10:51:12.552Z,19.18
2016-05-17T10:52:12.586Z,19.31
2016-05-17T10:53:12.525Z,19.34
2016-05-17T10:54:12.513Z,19.39
2016-05-17T10:55:12.499Z,19.21
2016-05-17T10:56:12.486Z,19.21
2016-05-17T10:57:12.458Z,19.26
2016-05-17T10:58:12.460Z,19.27
2016-05-17T10:59:12.448Z,19.33
2016-05-17T11:00:12.435Z,19.31
2016-05-17T11:01:12.407Z,19.44
2016-05-17T11:02:12.409Z,19.56
2016-05-17T11:03:12.302Z,19.64
2016-05-17T11:04:12.398Z,19.85
2016-05-17T11:05:12.214Z,19.81
2016-05-17T11:06:12.357Z,19.85
2016-05-17T11:07:12.344Z,19.76
2016-05-17T11:08:12.331Z,19.76
2016-05-17T11:09:12.318Z,19.63
2016-05-17T11:10:12.337Z,19.48
2016-05-17T11:11:12.183Z,19.45
2016-05-17T11:12:12.279Z,19.56
2016-05-17T11:13:12.110Z,19.51
2016-05-17T11:14:12.253Z,19.45
2016-05-17T11:15:12.241Z,19.41
2016-05-17T11:16:12.071Z,19.37
2016-05-17T11:17:12.089Z,19.31
2016-05-17T11:18:12.202Z,19.36
2016-05-17T11:19:12.205Z,19.21
2016-05-17T11:20:12.176Z,19.18
2016-05-17T11:21:12.008Z,19.21
2016-05-17T11:22:12.384Z,19.24
2016-05-17T11:23:12.152Z,19.19
2016-05-17T11:24:12.125Z,18.99
2016-05-17T11:25:12.111Z,19.02
2016-05-17T11:26:12.083Z,18.96
2016-05-17T11:27:12.086Z,19
2016-05-17T11:28:12.072Z,19.14
2016-05-17T11:29:12.044Z,19.15
2016-05-17T11:30:12.046Z,19.18
2016-05-17T11:31:12.018Z,19.34
2016-05-17T11:32:12.005Z,19.44
2016-05-17T11:33:11.993Z,19.55
2016-05-17T11:34:11.979Z,19.67
2016-05-17T11:35:11.966Z,19.7
2016-05-17T11:36:11.985Z,19.64
2016-05-17T11:37:11.956Z,19.66
2016-05-17T11:38:11.989Z,19.63
2016-05-17T11:39:11.915Z,19.69
2016-05-17T11:40:11.917Z,19.84
2016-05-17T11:41:11.904Z,20.03
2016-05-17T11:42:11.892Z,20.06
2016-05-17T11:43:11.862Z,20.03
2016-05-17T11:44:11.865Z,20.02
2016-05-17T11:45:11.852Z,20.03
2016-05-17T11:46:11.839Z,20.1
2016-05-17T11:47:11.827Z,20.02
2016-05-17T11:48:11.814Z,19.94
2016-05-17T11:49:11.644Z,19.96
2016-05-17T11:50:11.788Z,19.95
2016-05-17T11:51:11.775Z,20.04
2016-05-17T11:52:11.996Z,20.07
2016-05-17T11:53:11.749Z,20.04
2016-05-17T11:54:11.736Z,20.07
2016-05-17T11:55:11.723Z,20.19
2016-05-17T11:56:11.647Z,20.21
2016-05-17T11:57:12.088Z,20.25
2016-05-17T11:58:11.684Z,20.41
2016-05-17T11:59:11.672Z,20.6
2016-05-17T12:00:11.519Z,20.52
2016-05-17T12:01:11.645Z,20.5
2016-05-17T12:02:11.632Z,20.5
2016-05-17T12:03:11.635Z,20.43
2016-05-17T12:04:11.607Z,20.31
2016-05-17T12:05:11.593Z,20.4
2016-05-17T12:06:11.441Z,20.39
2016-05-17T12:07:11.584Z,20.29
2016-05-17T12:08:11.617Z,20.34
2016-05-17T12:09:11.401Z,20.28
2016-05-17T12:10:12.482Z,20.19
2016-05-17T12:11:11.375Z,20.03
2016-05-17T12:12:11.519Z,20
2016-05-17T12:13:11.506Z,20
2016-05-17T12:14:11.493Z,19.94
2016-05-17T12:15:11.480Z,19.96
2016-05-17T12:16:11.467Z,20.04
2016-05-17T12:17:11.486Z,20.11
2016-05-17T12:18:11.285Z,20.03
2016-05-17T12:19:11.428Z,19.99
2016-05-17T12:20:11.416Z,20.09
2016-05-17T12:21:11.403Z,20.18
2016-05-17T12:22:11.467Z,20.29
2016-05-17T12:23:11.377Z,20.28
2016-05-17T12:24:11.363Z,20.4
2016-05-17T12:25:11.350Z,20.43
2016-05-17T12:26:11.338Z,20.44
2016-05-17T12:27:11.325Z,20.41
2016-05-17T12:28:11.155Z,20.47
2016-05-17T12:29:11.143Z,20.55
2016-05-17T12:30:11.286Z,20.41
2016-05-17T12:31:11.274Z,20.39
2016-05-17T12:32:11.276Z,20.34
2016-05-17T12:33:11.310Z,20.14
2016-05-17T12:34:11.235Z,20.06
2016-05-17T12:35:11.221Z,20.13
2016-05-17T12:36:11.209Z,19.95
2016-05-17T12:37:11.586Z,19.89
2016-05-17T12:38:11.182Z,19.71
2016-05-17T12:39:11.170Z,19.58
2016-05-17T12:40:11.157Z,19.49
2016-05-17T12:41:11.128Z,19.4
2016-05-17T12:42:11.115Z,19.3
2016-05-17T12:43:11.118Z,19.11
2016-05-17T12:44:11.090Z,18.99
2016-05-17T12:45:11.076Z,19.02
2016-05-17T12:46:11.064Z,18.99
2016-05-17T12:47:11.051Z,18.88
2016-05-17T12:48:11.037Z,18.8
2016-05-17T12:49:11.024Z,18.7
2016-05-17T12:50:11.011Z,18.65
2016-05-17T12:51:10.983Z,18.66
2016-05-17T12:52:10.970Z,18.65
2016-05-17T12:53:10.957Z,18.58
2016-05-17T12:54:10.944Z,18.62
2016-05-17T12:55:10.916Z,18.55